createdAt,value
2017-10-29T00:00:07.146Z,12.8
2017-10-29T00:01:09.025Z,12.9
2017-10-29T00:02:10.976Z,13.1
2017-10-29T00:03:12.981Z,13
2017-10-29T00:04:15.239Z,13
2017-10-29T00:05:17.414Z,12.8
2017-10-29T00:06:19.365Z,12.8
2017-10-29T00:07:21.267Z,12.9
2017-10-29T00:08:23.261Z,12.9
2017-10-29T00:09:25.202Z,12.9
2017-10-29T00:10:27.808Z,12.9
2017-10-29T00:11:33.152Z,12.9
2017-10-29T00:12:36.828Z,13
2017-10-29T00:13:39.938Z,12.9
2017-10-29T00:14:43.948Z,13.1
2017-10-29T00:15:45.849Z,13.1
2017-10-29T00:16:47.946Z,13.1
2017-10-29T00:17:49.894Z,12.9
2017-10-29T00:18:52.016Z,13
2017-10-29T00:19:54.112Z,13
2017-10-29T00:20:56.097Z,13.1
2017-10-29T00:21:58.046Z,13
2017-10-29T00:23:00.018Z,13
2017-10-29T00:24:01.986Z,13.1
2017-10-29T00:25:04.017Z,13
2017-10-29T00:26:06.018Z,12.9
2017-10-29T00:27:07.977Z,12.9
2017-10-29T00:28:09.890Z,12.9
2017-10-29T00:29:11.868Z,12.9
2017-10-29T00:30:13.902Z,12.9
2017-10-29T00:31:15.855Z,12.9
2017-10-29T00:32:17.862Z,12.9
2017-10-29T00:33:19.830Z,12.9
2017-10-29T00:34:21.946Z,12.9
2017-10-29T00:35:23.903Z,12.9
2017-10-29T00:36:25.823Z,12.9
2017-10-29T00:37:27.830Z,13
2017-10-29T00:38:29.821Z,12.9
2017-10-29T00:39:32.075Z,12.9
2017-10-29T00:40:34.016Z,12.9
2017-10-29T00:41:35.941Z,12.9
2017-10-29T00:42:37.919Z,12.9
2017-10-29T00:43:39.890Z,12.9
2017-10-29T00:44:41.912Z,12.9
2017-10-29T00:45:43.864Z,12.9
2017-10-29T00:46:45.908Z,13
2017-10-29T00:47:48.107Z,12.9
2017-10-29T00:48:50.182Z,12.9
2017-10-29T00:49:52.148Z,12.9
2017-10-29T00:50:54.082Z,12.9
2017-10-29T00:51:55.965Z,12.9
2017-10-29T00:52:57.927Z,12.9
2017-10-29T00:53:59.836Z,13
2017-10-29T00:55:01.847Z,13
2017-10-29T00:56:03.765Z,13
2017-10-29T00:57:05.738Z,12.9
2017-10-29T00:58:07.738Z,12.9
2017-10-29T00:59:09.757Z,12.9
2017-10-29T01:00:12.020Z,12.9
2017-10-29T01:01:14.080Z,12.8
2017-10-29T01:02:16.387Z,12.9
2017-10-29T01:03:18.375Z,12.9
2017-10-29T01:04:20.274Z,12.8
2017-10-29T01:05:22.294Z,12.8
2017-10-29T01:06:24.281Z,12.8
2017-10-29T01:07:26.236Z,12.7
2017-10-29T01:08:28.221Z,12.7
2017-10-29T01:09:30.144Z,12.7
2017-10-29T01:10:32.162Z,12.8
2017-10-29T01:11:34.374Z,12.7
2017-10-29T01:12:36.339Z,12.7
2017-10-29T01:13:38.278Z,12.7
2017-10-29T01:14:40.186Z,12.8
2017-10-29T01:15:42.158Z,12.7
2017-10-29T01:16:44.114Z,12.7
2017-10-29T01:17:46.085Z,12.6
2017-10-29T01:18:48.039Z,12.7
2017-10-29T01:19:49.978Z,12.8
2017-10-29T01:20:52.018Z,12.7
2017-10-29T01:21:54.552Z,12.7
2017-10-29T01:22:56.754Z,12.7
2017-10-29T01:23:58.783Z,12.8
2017-10-29T01:25:00.732Z,12.7
2017-10-29T01:26:02.727Z,12.8
2017-10-29T01:27:04.667Z,12.7
2017-10-29T01:28:06.619Z,12.8
2017-10-29T01:29:08.578Z,12.7
2017-10-29T01:30:10.481Z,12.8
2017-10-29T01:31:12.540Z,12.7
2017-10-29T01:32:14.482Z,12.9
2017-10-29T01:33:16.453Z,12.9
2017-10-29T01:34:18.355Z,12.9
2017-10-29T01:35:20.326Z,12.8
2017-10-29T01:36:22.807Z,12.8
2017-10-29T01:37:24.828Z,12.9
2017-10-29T01:38:26.843Z,12.8
2017-10-29T01:39:28.803Z,12.9
2017-10-29T01:40:30.682Z,12.8
2017-10-29T01:41:32.735Z,12.8
2017-10-29T01:42:34.730Z,12.8
2017-10-29T01:43:36.737Z,12.8
2017-10-29T01:44:38.646Z,12.8
2017-10-29T01:45:40.790Z,12.8
2017-10-29T01:46:42.838Z,12.7
2017-10-29T01:47:44.930Z,12.7
2017-10-29T01:48:46.920Z,12.8
2017-10-29T01:49:49.115Z,12.8
2017-10-29T01:50:51.166Z,12.8
2017-10-29T01:51:53.452Z,12.7
2017-10-29T01:52:55.427Z,12.7
2017-10-29T01:53:57.371Z,12.8
2017-10-29T01:54:59.366Z,12.7
2017-10-29T01:56:01.281Z,12.7
2017-10-29T01:57:03.276Z,12.6
2017-10-29T01:58:05.235Z,12.6
2017-10-29T01:59:07.189Z,12.6
2017-10-29T02:00:09.085Z,12.6
2017-10-29T02:01:11.044Z,12.6
2017-10-29T02:02:13.002Z,12.7
2017-10-29T02:03:15.205Z,12.6
2017-10-29T02:04:17.181Z,12.7
2017-10-29T02:05:19.156Z,12.7
2017-10-29T02:06:21.133Z,12.7
2017-10-29T02:07:23.090Z,12.8
2017-10-29T02:08:25.115Z,12.7
2017-10-29T02:09:27.077Z,12.7
2017-10-29T02:10:29.022Z,12.8
2017-10-29T02:11:30.962Z,12.8
2017-10-29T02:12:33.232Z,12.8
2017-10-29T02:13:35.191Z,12.8
2017-10-29T02:14:37.342Z,12.9
2017-10-29T02:15:39.279Z,12.9
2017-10-29T02:16:41.230Z,12.8
2017-10-29T02:17:43.349Z,12.8
2017-10-29T02:18:45.208Z,12.8
2017-10-29T02:19:47.153Z,12.7
2017-10-29T02:20:49.085Z,12.7
2017-10-29T02:21:51.032Z,12.7
2017-10-29T02:22:53.519Z,12.7
2017-10-29T02:23:55.750Z,12.6
2017-10-29T02:24:57.695Z,12.6
2017-10-29T02:25:59.547Z,12.7
2017-10-29T02:27:01.713Z,12.7
2017-10-29T02:28:03.776Z,12.7
2017-10-29T02:29:05.798Z,12.6
2017-10-29T02:30:07.738Z,12.8
2017-10-29T02:31:09.728Z,12.8
2017-10-29T02:32:11.727Z,12.8
2017-10-29T02:33:13.743Z,12.8
2017-10-29T02:34:15.605Z,12.7
2017-10-29T02:35:17.558Z,12.8
2017-10-29T02:36:19.612Z,12.7
2017-10-29T02:37:21.569Z,12.7
2017-10-29T02:38:23.629Z,12.7
2017-10-29T02:39:25.637Z,12.6
2017-10-29T02:40:28.011Z,12.7
2017-10-29T02:41:30.019Z,12.6
2017-10-29T02:42:31.963Z,12.6
2017-10-29T02:43:33.910Z,12.6
2017-10-29T02:44:35.897Z,12.6
2017-10-29T02:45:37.901Z,12.6
2017-10-29T02:46:39.780Z,12.6
2017-10-29T02:47:41.749Z,12.5
2017-10-29T02:48:43.789Z,12.6
2017-10-29T02:49:45.800Z,12.6
2017-10-29T02:50:47.764Z,12.7
2017-10-29T02:51:49.901Z,12.6
2017-10-29T02:52:51.787Z,12.6
2017-10-29T02:53:53.820Z,12.6
2017-10-29T02:54:55.786Z,12.7
2017-10-29T02:55:57.784Z,12.6
2017-10-29T02:56:59.713Z,12.6
2017-10-29T02:58:01.652Z,12.7
2017-10-29T02:59:03.653Z,12.7
2017-10-29T03:00:05.581Z,12.6
2017-10-29T03:01:07.551Z,12.6
2017-10-29T03:02:09.613Z,12.8
2017-10-29T03:03:11.600Z,12.7
2017-10-29T03:04:13.716Z,12.7
2017-10-29T03:05:15.634Z,12.8
2017-10-29T03:06:17.491Z,12.8
2017-10-29T03:07:19.587Z,12.6
2017-10-29T03:08:21.517Z,12.6
2017-10-29T03:09:23.477Z,12.7
2017-10-29T03:10:25.393Z,12.6
2017-10-29T03:11:27.415Z,12.5
2017-10-29T03:12:29.477Z,12.6
2017-10-29T03:13:31.465Z,12.6
2017-10-29T03:14:33.457Z,12.6
2017-10-29T03:15:35.453Z,12.6
2017-10-29T03:16:37.454Z,12.4
2017-10-29T03:17:39.410Z,12.3
2017-10-29T03:18:41.462Z,12.2
2017-10-29T03:19:43.532Z,12.1
2017-10-29T03:20:45.458Z,12.2
2017-10-29T03:21:47.431Z,12.2
2017-10-29T03:22:49.393Z,12.2
2017-10-29T03:23:51.378Z,12.2
2017-10-29T03:24:53.364Z,12.1
2017-10-29T03:25:55.404Z,12.1
2017-10-29T03:26:57.833Z,12.2
2017-10-29T03:28:00.363Z,12.2
2017-10-29T03:29:02.419Z,12.2
2017-10-29T03:30:04.415Z,12.2
2017-10-29T03:31:06.695Z,12.1
2017-10-29T03:32:08.748Z,12.2
2017-10-29T03:33:10.708Z,12.1
2017-10-29T03:34:12.667Z,12.1
2017-10-29T03:35:14.961Z,12.2
2017-10-29T03:36:16.927Z,12.1
2017-10-29T03:37:18.991Z,12.2
2017-10-29T03:38:20.980Z,12.1
2017-10-29T03:39:22.908Z,12.1
2017-10-29T03:40:24.899Z,12
2017-10-29T03:41:26.954Z,12.1
2017-10-29T03:42:29.075Z,12.2
2017-10-29T03:43:31.180Z,12.2
2017-10-29T03:44:33.492Z,12.1
2017-10-29T03:45:35.584Z,12.1
2017-10-29T03:46:37.626Z,12
2017-10-29T03:47:39.662Z,12.1
2017-10-29T03:48:41.584Z,12
2017-10-29T03:49:43.669Z,12.1
2017-10-29T03:50:45.666Z,12
2017-10-29T03:51:47.571Z,12
2017-10-29T03:52:49.519Z,12
2017-10-29T03:53:51.554Z,12
2017-10-29T03:54:53.502Z,12
2017-10-29T03:55:56.003Z,12
2017-10-29T03:56:57.983Z,12
2017-10-29T03:57:59.967Z,12
2017-10-29T03:59:02.075Z,12.1
2017-10-29T04:00:04.311Z,12.1
2017-10-29T04:01:06.580Z,12.1
2017-10-29T04:02:08.583Z,12
2017-10-29T04:03:10.575Z,12
2017-10-29T04:04:12.679Z,12.1
2017-10-29T04:05:14.670Z,12.1
2017-10-29T04:06:17.001Z,12.1
2017-10-29T04:07:19.018Z,12.1
2017-10-29T04:08:20.959Z,11.9
2017-10-29T04:09:22.889Z,11.8
2017-10-29T04:10:24.815Z,11.9
2017-10-29T04:11:26.836Z,11.9
2017-10-29T04:12:28.877Z,11.9
2017-10-29T04:13:30.823Z,11.8
2017-10-29T04:14:32.833Z,11.7
2017-10-29T04:15:34.750Z,11.7
2017-10-29T04:16:36.695Z,11.7
2017-10-29T04:17:38.820Z,11.5
2017-10-29T04:18:40.881Z,11.3
2017-10-29T04:19:42.814Z,11.4
2017-10-29T04:20:44.900Z,11.3
2017-10-29T04:21:47.070Z,11.3
2017-10-29T04:22:49.083Z,11.3
2017-10-29T04:23:50.977Z,11.4
2017-10-29T04:24:52.936Z,11.3
2017-10-29T04:25:55.152Z,11.4
2017-10-29T04:26:57.168Z,11.3
2017-10-29T04:27:59.233Z,11.4
2017-10-29T04:29:01.198Z,11.4
2017-10-29T04:30:03.188Z,11.3
2017-10-29T04:31:05.085Z,11.3
2017-10-29T04:32:07.128Z,11.3
2017-10-29T04:33:09.131Z,11.3
2017-10-29T04:34:11.079Z,11.3
2017-10-29T04:35:13.073Z,11.3
2017-10-29T04:36:15.037Z,11.1
2017-10-29T04:37:16.998Z,11.2
2017-10-29T04:38:18.983Z,11.2
2017-10-29T04:39:20.943Z,11.2
2017-10-29T04:40:22.898Z,11.2
2017-10-29T04:41:24.887Z,11.2
2017-10-29T04:42:27.550Z,11.2
2017-10-29T04:43:29.556Z,11.2
2017-10-29T04:44:31.466Z,11.2
2017-10-29T04:45:33.404Z,11.1
2017-10-29T04:46:35.461Z,11.2
2017-10-29T04:47:37.667Z,11.3
2017-10-29T04:48:39.667Z,11.3
2017-10-29T04:49:41.762Z,11.3
2017-10-29T04:50:43.866Z,11.4
2017-10-29T04:51:45.895Z,11.3
2017-10-29T04:52:47.905Z,11.3
2017-10-29T04:53:49.885Z,11.3
2017-10-29T04:54:51.812Z,11.3
2017-10-29T04:55:53.802Z,11.3
2017-10-29T04:56:55.759Z,11.3
2017-10-29T04:57:57.756Z,11.3
2017-10-29T04:58:59.704Z,11.3
2017-10-29T05:00:01.697Z,11.3
2017-10-29T05:01:03.599Z,11.2
2017-10-29T05:02:06.406Z,11
2017-10-29T05:03:08.447Z,10.8
2017-10-29T05:04:10.388Z,10.9
2017-10-29T05:05:12.402Z,10.8
2017-10-29T05:06:14.478Z,10.7
2017-10-29T05:07:16.476Z,10.6
2017-10-29T05:08:18.497Z,10.6
2017-10-29T05:09:20.526Z,10.6
2017-10-29T05:10:22.554Z,10.4
2017-10-29T05:11:24.547Z,10.5
2017-10-29T05:12:26.593Z,10.5
2017-10-29T05:13:28.593Z,10.4
2017-10-29T05:14:30.636Z,10.4
2017-10-29T05:15:32.606Z,10.4
2017-10-29T05:16:34.584Z,10.4
2017-10-29T05:17:36.631Z,10.4
2017-10-29T05:18:38.927Z,10.3
2017-10-29T05:19:40.899Z,10.3
2017-10-29T05:20:42.954Z,10.3
2017-10-29T05:21:44.904Z,10.3
2017-10-29T05:22:46.898Z,10.3
2017-10-29T05:23:48.896Z,10.2
2017-10-29T05:24:50.876Z,10.3
2017-10-29T05:25:52.833Z,10.2
2017-10-29T05:26:54.867Z,10.2
2017-10-29T05:27:56.945Z,10.1
2017-10-29T05:28:59.182Z,10.2
2017-10-29T05:30:01.307Z,10.2
2017-10-29T05:31:03.185Z,10.1
2017-10-29T05:32:05.252Z,10.1
2017-10-29T05:33:07.170Z,10.2
2017-10-29T05:34:09.467Z,10.1
2017-10-29T05:35:11.448Z,10.1
2017-10-29T05:36:13.407Z,10.1
2017-10-29T05:37:15.417Z,10.3
2017-10-29T05:38:17.492Z,10.2
2017-10-29T05:39:19.618Z,10.1
2017-10-29T05:40:21.539Z,10.1
2017-10-29T05:41:23.539Z,10.1
2017-10-29T05:42:25.477Z,10.1
2017-10-29T05:43:27.383Z,10.2
2017-10-29T05:44:29.561Z,10.2
2017-10-29T05:45:31.493Z,10.2
2017-10-29T05:46:33.456Z,10.2
2017-10-29T05:47:35.387Z,10.3
2017-10-29T05:48:37.345Z,10.2
2017-10-29T05:49:39.678Z,10.1
2017-10-29T05:50:41.733Z,10.1
2017-10-29T05:51:43.802Z,9.9
2017-10-29T05:52:45.803Z,10
2017-10-29T05:53:47.860Z,10
2017-10-29T05:54:49.928Z,10.1
2017-10-29T05:55:51.885Z,10
2017-10-29T05:56:53.881Z,10
2017-10-29T05:57:55.848Z,10.1
2017-10-29T05:58:57.819Z,9.7
2017-10-29T05:59:59.845Z,9.7
2017-10-29T06:01:01.843Z,9.6
2017-10-29T06:02:04.015Z,9.6
2017-10-29T06:03:05.917Z,9.4
2017-10-29T06:04:07.886Z,9.4
2017-10-29T06:05:09.852Z,9.3
2017-10-29T06:06:11.913Z,9.3
2017-10-29T06:07:13.854Z,9.2
2017-10-29T06:08:15.884Z,9.4
2017-10-29T06:09:17.932Z,9.5
2017-10-29T06:10:20.020Z,9.5
2017-10-29T06:11:22.071Z,9.6
2017-10-29T06:12:24.000Z,9.3
2017-10-29T06:13:26.040Z,9.3
2017-10-29T06:14:28.082Z,9.4
2017-10-29T06:15:30.070Z,9.3
2017-10-29T06:16:32.009Z,9.4
2017-10-29T06:17:33.957Z,9.3
2017-10-29T06:18:36.048Z,9.4
2017-10-29T06:19:37.960Z,9.4
2017-10-29T06:20:40.298Z,9.4
2017-10-29T06:21:42.278Z,9.5
2017-10-29T06:22:44.241Z,9.4
2017-10-29T06:23:46.293Z,9.6
2017-10-29T06:24:48.248Z,9.5
2017-10-29T06:25:50.288Z,9.4
2017-10-29T06:26:52.293Z,9.5
2017-10-29T06:27:54.263Z,9.4
2017-10-29T06:28:56.168Z,9.4
2017-10-29T06:29:58.168Z,9.2
2017-10-29T06:31:00.275Z,9.4
2017-10-29T06:32:02.304Z,9.3
2017-10-29T06:33:04.390Z,9.4
2017-10-29T06:34:06.403Z,9.4
2017-10-29T06:35:08.628Z,9.4
2017-10-29T06:36:10.636Z,9.3
2017-10-29T06:37:12.600Z,9.1
2017-10-29T06:38:14.566Z,9.3
2017-10-29T06:39:16.490Z,9.2
2017-10-29T06:40:18.378Z,9.4
2017-10-29T06:41:20.450Z,9.4
2017-10-29T06:42:22.492Z,9.5
2017-10-29T06:43:24.452Z,9.5
2017-10-29T06:44:26.476Z,9.4
2017-10-29T06:45:28.622Z,9.4
2017-10-29T06:46:31.029Z,9.4
2017-10-29T06:47:33.119Z,9.6
2017-10-29T06:48:35.194Z,9.7
2017-10-29T06:49:37.268Z,9.7
2017-10-29T06:50:39.171Z,9.5
2017-10-29T06:51:41.492Z,9.8
2017-10-29T06:52:43.509Z,9.7
2017-10-29T06:53:45.510Z,9.6
2017-10-29T06:54:47.487Z,9.6
2017-10-29T06:55:49.521Z,9.6
2017-10-29T06:56:52.360Z,9.8
2017-10-29T06:57:54.359Z,9.9
2017-10-29T06:58:56.333Z,9.8
2017-10-29T06:59:58.283Z,9.8
2017-10-29T07:01:00.222Z,9.9
2017-10-29T07:02:02.204Z,9.7
2017-10-29T07:03:04.088Z,9.9
2017-10-29T07:04:06.059Z,9.8
2017-10-29T07:05:07.963Z,9.8
2017-10-29T07:06:09.895Z,9.6
2017-10-29T07:07:11.853Z,9.7
2017-10-29T07:08:13.850Z,9.5
2017-10-29T07:09:15.819Z,9.4
2017-10-29T07:10:17.807Z,9.7
2017-10-29T07:11:19.776Z,9.5
2017-10-29T07:12:21.704Z,9.6
2017-10-29T07:13:23.653Z,9.6
2017-10-29T07:14:25.613Z,9.6
2017-10-29T07:15:27.532Z,9.7
2017-10-29T07:16:29.457Z,9.8
2017-10-29T07:17:31.487Z,9.8
2017-10-29T07:18:33.675Z,9.6
2017-10-29T07:19:35.547Z,9.8
2017-10-29T07:20:37.492Z,9.9
2017-10-29T07:21:39.555Z,10
2017-10-29T07:22:41.555Z,9.9
2017-10-29T07:23:43.547Z,9.9
2017-10-29T07:24:45.601Z,10.1
2017-10-29T07:25:47.586Z,9.9
2017-10-29T07:26:49.579Z,9.6
2017-10-29T07:27:51.557Z,9.7
2017-10-29T07:28:53.587Z,10
2017-10-29T07:29:55.513Z,10
2017-10-29T07:30:57.532Z,9.8
2017-10-29T07:31:59.464Z,9.9
2017-10-29T07:33:01.519Z,10
2017-10-29T07:34:03.518Z,9.7
2017-10-29T07:35:05.581Z,9.7
2017-10-29T07:36:07.563Z,9.6
2017-10-29T07:37:09.823Z,9.8
2017-10-29T07:38:11.885Z,9.8
2017-10-29T07:39:15.040Z,9.8
2017-10-29T07:40:17.466Z,10
2017-10-29T07:41:19.386Z,10
2017-10-29T07:42:21.333Z,10.1
2017-10-29T07:43:23.254Z,9.9
2017-10-29T07:44:25.121Z,10
2017-10-29T07:45:27.171Z,10
2017-10-29T07:46:29.157Z,10
2017-10-29T07:47:31.287Z,10.1
2017-10-29T07:48:33.507Z,10.1
2017-10-29T07:49:35.415Z,10.3
2017-10-29T07:50:37.434Z,10.4
2017-10-29T07:51:39.410Z,10.6
2017-10-29T07:52:41.329Z,10.8
2017-10-29T07:53:43.488Z,10.9
2017-10-29T07:54:45.518Z,10.9
2017-10-29T07:55:47.540Z,10.7
2017-10-29T07:56:49.527Z,10.7
2017-10-29T07:57:51.481Z,10.8
2017-10-29T07:58:53.720Z,10.9
2017-10-29T07:59:55.759Z,11.1
2017-10-29T08:00:57.726Z,10.8
2017-10-29T08:01:59.706Z,10.9
2017-10-29T08:03:01.668Z,11.1
2017-10-29T08:04:03.690Z,11
2017-10-29T08:05:05.660Z,10.5
2017-10-29T08:06:07.620Z,10.5
2017-10-29T08:07:09.637Z,10.6
2017-10-29T08:08:11.621Z,10.3
2017-10-29T08:09:13.851Z,10.3
2017-10-29T08:10:15.853Z,10.3
2017-10-29T08:11:18.041Z,10
2017-10-29T08:12:20.214Z,10.1
2017-10-29T08:13:22.189Z,10.4
2017-10-29T08:14:24.163Z,10.4
2017-10-29T08:15:26.215Z,10.5
2017-10-29T08:16:28.929Z,10.7
2017-10-29T08:17:30.945Z,10.5
2017-10-29T08:18:33.009Z,10.4
2017-10-29T08:19:35.037Z,10.4
2017-10-29T08:20:37.029Z,10.5
2017-10-29T08:21:38.963Z,11
2017-10-29T08:22:41.013Z,11.3
2017-10-29T08:23:43.219Z,11.1
2017-10-29T08:24:45.253Z,10.9
2017-10-29T08:25:47.158Z,10.9
2017-10-29T08:26:49.154Z,10.9
2017-10-29T08:27:51.074Z,11
2017-10-29T08:28:53.133Z,10.7
2017-10-29T08:29:55.209Z,10.8
2017-10-29T08:30:57.277Z,10.8
2017-10-29T08:31:59.223Z,11.1
2017-10-29T08:33:01.154Z,10.7
2017-10-29T08:34:03.177Z,10.5
2017-10-29T08:35:05.211Z,10
2017-10-29T08:36:07.264Z,9.9
2017-10-29T08:37:09.357Z,9.6
2017-10-29T08:38:11.322Z,9.1
2017-10-29T08:39:13.343Z,9.2
2017-10-29T08:40:15.270Z,9.3
2017-10-29T08:41:17.313Z,9.1
2017-10-29T08:42:19.282Z,8.9
2017-10-29T08:43:21.224Z,9.1
2017-10-29T08:44:23.179Z,8.7
2017-10-29T08:45:25.251Z,8.7
2017-10-29T08:46:27.153Z,8.2
2017-10-29T08:47:29.133Z,8.3
2017-10-29T08:48:31.139Z,8.1
2017-10-29T08:49:33.081Z,8.3
2017-10-29T08:50:35.160Z,8.6
2017-10-29T08:51:37.047Z,8.6
2017-10-29T08:52:38.960Z,8.2
2017-10-29T08:53:40.909Z,8.3
2017-10-29T08:54:42.895Z,8.4
2017-10-29T08:55:44.885Z,9
2017-10-29T08:56:46.976Z,9.8
2017-10-29T08:57:48.929Z,10
2017-10-29T08:58:50.910Z,10.2
2017-10-29T08:59:52.821Z,10.1
2017-10-29T09:00:54.798Z,10.4
2017-10-29T09:01:56.811Z,10.8
2017-10-29T09:02:58.815Z,10.7
2017-10-29T09:04:04.993Z,11
2017-10-29T09:05:07.716Z,10.9
2017-10-29T09:06:09.790Z,11.2
2017-10-29T09:07:11.806Z,11.7
2017-10-29T09:08:13.758Z,11.4
2017-10-29T09:09:15.747Z,11.9
2017-10-29T09:10:17.698Z,12
2017-10-29T09:11:19.726Z,11.9
2017-10-29T09:12:21.945Z,11.9
2017-10-29T09:13:23.926Z,12.1
2017-10-29T09:14:25.920Z,12.5
2017-10-29T09:15:27.948Z,12.3
2017-10-29T09:16:30.216Z,12.4
2017-10-29T09:17:32.201Z,12.4
2017-10-29T09:18:34.201Z,12.1
2017-10-29T09:19:36.291Z,12.1
2017-10-29T09:20:38.353Z,12
2017-10-29T09:21:40.352Z,12
2017-10-29T09:22:42.335Z,11.6
2017-10-29T09:23:44.442Z,11.3
2017-10-29T09:24:46.414Z,11.3
2017-10-29T09:25:48.410Z,11.3
2017-10-29T09:26:50.781Z,11
2017-10-29T09:27:52.765Z,11
2017-10-29T09:28:54.675Z,11.4
2017-10-29T09:29:56.631Z,12.1
2017-10-29T09:30:58.966Z,11.5
2017-10-29T09:32:00.947Z,11.1
2017-10-29T09:33:02.938Z,11.4
2017-10-29T09:34:04.942Z,10.9
2017-10-29T09:35:06.974Z,11
2017-10-29T09:36:08.970Z,10.9
2017-10-29T09:37:11.014Z,11.1
2017-10-29T09:38:13.072Z,10.9
2017-10-29T09:39:15.094Z,10.6
2017-10-29T09:40:17.097Z,10.7
2017-10-29T09:41:19.108Z,11
2017-10-29T09:42:21.163Z,11.4
2017-10-29T09:43:23.208Z,11.4
2017-10-29T09:44:25.140Z,11.1
2017-10-29T09:45:27.207Z,12.1
2017-10-29T09:46:29.186Z,12.1
2017-10-29T09:47:31.212Z,12.1
2017-10-29T09:48:33.206Z,11.5
2017-10-29T09:49:35.526Z,11.1
2017-10-29T09:50:37.584Z,11.3
2017-10-29T09:51:39.605Z,10.7
2017-10-29T09:52:41.937Z,10.8
2017-10-29T09:53:43.884Z,10.9
2017-10-29T09:54:45.845Z,10.6
2017-10-29T09:55:47.930Z,10.5
2017-10-29T09:56:49.902Z,10.6
2017-10-29T09:57:51.964Z,10.4
2017-10-29T09:58:53.947Z,10.4
2017-10-29T09:59:55.898Z,10.4
2017-10-29T10:00:57.839Z,10.5
2017-10-29T10:01:59.923Z,10.3
2017-10-29T10:03:02.435Z,10.1
2017-10-29T10:04:04.463Z,10.1
2017-10-29T10:05:06.604Z,10.4
2017-10-29T10:06:08.587Z,10.6
2017-10-29T10:07:10.634Z,10.2
2017-10-29T10:08:12.809Z,10.3
2017-10-29T10:09:14.837Z,10.7
2017-10-29T10:10:16.801Z,10.6
2017-10-29T10:11:18.780Z,10.7
2017-10-29T10:12:20.751Z,11
2017-10-29T10:13:22.701Z,11
2017-10-29T10:14:24.761Z,11.1
2017-10-29T10:15:26.752Z,10.9
2017-10-29T10:16:28.761Z,10.9
2017-10-29T10:17:30.774Z,10.8
2017-10-29T10:18:32.826Z,10.8
2017-10-29T10:19:34.890Z,11.1
2017-10-29T10:20:36.829Z,10.9
2017-10-29T10:21:38.764Z,11.4
2017-10-29T10:22:40.704Z,11.6
2017-10-29T10:23:42.661Z,11.5
2017-10-29T10:24:44.639Z,11.2
2017-10-29T10:25:46.705Z,10.9
2017-10-29T10:26:48.670Z,10.8
2017-10-29T10:27:50.716Z,10.8
2017-10-29T10:28:52.789Z,10.7
2017-10-29T10:29:54.762Z,11.1
2017-10-29T10:30:56.696Z,10.8
2017-10-29T10:31:58.877Z,10.8
2017-10-29T10:33:00.908Z,10.7
2017-10-29T10:34:02.993Z,10.1
2017-10-29T10:35:04.913Z,10.1
2017-10-29T10:36:06.973Z,10.4
2017-10-29T10:37:08.934Z,10.7
2017-10-29T10:38:10.960Z,10.2
2017-10-29T10:39:13.276Z,10.2
2017-10-29T10:40:15.358Z,10.2
2017-10-29T10:41:17.290Z,10.3
2017-10-29T10:42:19.381Z,10.2
2017-10-29T10:43:21.431Z,10.3
2017-10-29T10:44:23.484Z,10.1
2017-10-29T10:45:25.551Z,10.1
2017-10-29T10:46:27.627Z,9.9
2017-10-29T10:47:29.567Z,10.1
2017-10-29T10:48:31.645Z,10
2017-10-29T10:49:33.786Z,9.8
2017-10-29T10:50:35.789Z,9.7
2017-10-29T10:51:37.798Z,9.7
2017-10-29T10:52:39.751Z,9.6
2017-10-29T10:53:41.730Z,9.4
2017-10-29T10:54:45.306Z,9.8
2017-10-29T10:55:47.479Z,9.4
2017-10-29T10:56:49.483Z,9.4
2017-10-29T10:57:51.458Z,9.4
2017-10-29T10:58:53.479Z,9.3
2017-10-29T10:59:55.902Z,9.2
2017-10-29T11:00:57.848Z,9.4
2017-10-29T11:01:59.848Z,9.7
2017-10-29T11:03:01.854Z,9.5
2017-10-29T11:04:03.908Z,9.4
2017-10-29T11:05:06.182Z,9.6
2017-10-29T11:06:08.158Z,9.5
2017-10-29T11:07:10.171Z,9.5
2017-10-29T11:08:12.095Z,9.6
2017-10-29T11:09:14.114Z,9.6
2017-10-29T11:10:16.187Z,9.8
2017-10-29T11:11:18.223Z,10
2017-10-29T11:12:20.206Z,10.1
2017-10-29T11:13:22.260Z,9.8
2017-10-29T11:14:24.276Z,9.9
2017-10-29T11:15:26.267Z,10.1
2017-10-29T11:16:29.037Z,10.4
2017-10-29T11:17:30.993Z,10.3
2017-10-29T11:18:33.051Z,10.4
2017-10-29T11:19:35.316Z,10.6
2017-10-29T11:20:37.378Z,10.6
2017-10-29T11:21:39.309Z,10.3
2017-10-29T11:22:41.305Z,10.2
2017-10-29T11:23:43.437Z,9.7
2017-10-29T11:24:45.445Z,9.8
2017-10-29T11:25:47.419Z,10.2
2017-10-29T11:26:49.458Z,10.4
2017-10-29T11:27:51.370Z,10.6
2017-10-29T11:28:53.320Z,10.3
2017-10-29T11:29:55.300Z,10.4
2017-10-29T11:30:57.410Z,10.6
2017-10-29T11:31:59.452Z,10.3
2017-10-29T11:33:01.459Z,10.4
2017-10-29T11:34:03.482Z,10.6
2017-10-29T11:35:05.420Z,10.7
2017-10-29T11:36:07.439Z,10.7
2017-10-29T11:37:09.452Z,10.9
2017-10-29T11:38:11.383Z,11.2
2017-10-29T11:39:13.387Z,11.4
2017-10-29T11:40:15.340Z,11.4
2017-10-29T11:41:17.312Z,11.5
2017-10-29T11:42:19.272Z,11.1
2017-10-29T11:43:21.434Z,10.7
2017-10-29T11:44:23.367Z,10.9
2017-10-29T11:45:25.337Z,10.9
2017-10-29T11:46:27.393Z,10.9
2017-10-29T11:47:29.356Z,11.1
2017-10-29T11:48:31.249Z,11.2
2017-10-29T11:49:33.194Z,10.9
2017-10-29T11:50:35.133Z,11.2
2017-10-29T11:51:37.180Z,11.5
2017-10-29T11:52:39.139Z,11.6
2017-10-29T11:53:41.142Z,11.6
2017-10-29T11:54:43.168Z,11.4
2017-10-29T11:55:45.207Z,11.3
2017-10-29T11:56:47.226Z,11.7
2017-10-29T11:57:49.237Z,11.4
2017-10-29T11:58:51.251Z,11.7
2017-10-29T11:59:53.198Z,11.9
2017-10-29T12:00:55.199Z,11.6
2017-10-29T12:01:57.873Z,11.4
2017-10-29T12:02:59.798Z,11.3
2017-10-29T12:04:01.874Z,11.3
2017-10-29T12:05:03.897Z,11.3
2017-10-29T12:06:05.799Z,11.5
2017-10-29T12:07:07.776Z,11.3
2017-10-29T12:08:09.829Z,11.4
2017-10-29T12:09:11.819Z,11.2
2017-10-29T12:10:13.793Z,11.1
2017-10-29T12:11:15.908Z,11.1
2017-10-29T12:12:18.073Z,11.2
2017-10-29T12:13:20.138Z,11.1
2017-10-29T12:14:22.095Z,11.2
2017-10-29T12:15:24.379Z,10.9
2017-10-29T12:16:26.420Z,10.9
2017-10-29T12:17:28.483Z,10.6
2017-10-29T12:18:30.766Z,10.5
2017-10-29T12:19:32.884Z,11
2017-10-29T12:20:34.949Z,11.4
2017-10-29T12:21:36.946Z,11.3
2017-10-29T12:22:39.001Z,11.2
2017-10-29T12:23:41.056Z,11
2017-10-29T12:24:43.189Z,10.8
2017-10-29T12:25:45.182Z,10.9
2017-10-29T12:26:47.228Z,10.9
2017-10-29T12:27:49.299Z,11.2
2017-10-29T12:28:51.374Z,11
2017-10-29T12:29:53.368Z,11.5
2017-10-29T12:30:55.396Z,11.1
2017-10-29T12:31:57.439Z,11.2
2017-10-29T12:32:59.599Z,11.2
2017-10-29T12:34:01.683Z,10.9
2017-10-29T12:35:03.714Z,10.9
2017-10-29T12:36:05.754Z,11
2017-10-29T12:37:07.723Z,11
2017-10-29T12:38:09.807Z,10.9
2017-10-29T12:39:11.870Z,11.2
2017-10-29T12:40:13.970Z,11.1
2017-10-29T12:41:16.038Z,11.3
2017-10-29T12:42:18.676Z,11.2
2017-10-29T12:43:20.757Z,11.2
2017-10-29T12:44:22.883Z,11.4
2017-10-29T12:45:24.943Z,10.6
2017-10-29T12:46:26.934Z,10.5
2017-10-29T12:47:28.996Z,10.5
2017-10-29T12:48:31.112Z,10.6
2017-10-29T12:49:33.147Z,10.4
2017-10-29T12:50:35.123Z,10.4
2017-10-29T12:51:37.192Z,10
2017-10-29T12:52:39.177Z,10.2
2017-10-29T12:53:41.233Z,10
2017-10-29T12:54:43.205Z,9.9
2017-10-29T12:55:45.165Z,10
2017-10-29T12:56:47.155Z,10
2017-10-29T12:57:49.189Z,10.1
2017-10-29T12:58:51.354Z,9.9
2017-10-29T12:59:53.417Z,9.9
2017-10-29T13:00:55.434Z,9.6
2017-10-29T13:01:57.645Z,9.6
2017-10-29T13:02:59.687Z,9.6
2017-10-29T13:04:01.879Z,9.3
2017-10-29T13:05:03.883Z,9.4
2017-10-29T13:06:05.823Z,9.5
2017-10-29T13:07:07.758Z,9.5
2017-10-29T13:08:09.730Z,9.6
2017-10-29T13:09:11.794Z,9.5
2017-10-29T13:10:13.812Z,9.5
2017-10-29T13:11:15.950Z,9.5
2017-10-29T13:12:18.051Z,9.8
2017-10-29T13:13:20.099Z,10
2017-10-29T13:14:22.152Z,9.9
2017-10-29T13:15:24.119Z,9.7
2017-10-29T13:16:26.181Z,10
2017-10-29T13:17:28.145Z,10.2
2017-10-29T13:18:30.144Z,10.2
2017-10-29T13:19:32.154Z,10.1
2017-10-29T13:20:34.112Z,10.3
2017-10-29T13:21:36.114Z,10.3
2017-10-29T13:22:38.160Z,10.3
2017-10-29T13:23:40.167Z,10.1
2017-10-29T13:24:42.307Z,10
2017-10-29T13:25:44.285Z,9.8
2017-10-29T13:26:46.276Z,9.9
2017-10-29T13:27:49.470Z,9.8
2017-10-29T13:28:51.469Z,9.7
2017-10-29T13:29:53.538Z,9.6
2017-10-29T13:30:55.567Z,9.6
2017-10-29T13:31:57.689Z,9.4
2017-10-29T13:32:59.780Z,9.2
2017-10-29T13:34:01.808Z,9.3
2017-10-29T13:35:03.800Z,9.2
2017-10-29T13:36:05.803Z,9.4
2017-10-29T13:37:07.726Z,9.4
2017-10-29T13:38:09.731Z,9.4
2017-10-29T13:39:11.770Z,9.3
2017-10-29T13:40:14.223Z,9.5
2017-10-29T13:41:16.176Z,9.1
2017-10-29T13:42:18.411Z,9.2
2017-10-29T13:43:20.458Z,9.4
2017-10-29T13:44:22.525Z,9.5
2017-10-29T13:45:24.645Z,9.7
2017-10-29T13:46:26.760Z,9.4
2017-10-29T13:47:28.939Z,9.3
2017-10-29T13:48:31.110Z,9.4
2017-10-29T13:49:33.202Z,9.2
2017-10-29T13:50:35.395Z,9
2017-10-29T13:51:37.446Z,9.3
2017-10-29T13:52:39.507Z,9.6
2017-10-29T13:53:41.549Z,9.7
2017-10-29T13:54:43.564Z,9.6
2017-10-29T13:55:45.675Z,9.6
2017-10-29T13:56:47.660Z,9.5